Time;durP1;ratioP1;P1;durP2;ratioP2;P2;SDS_P1;SDS_P2;PMS_P1;PMS_P2;Temp;Humidity;BMP_temperature;BMP_pressure;BME280_temperature;BME280_humidity;BME280_pressure;Samples;Min_cycle;Max_cycle;Signal;HPM_P1;HPM_P2
2022/08/11 00:01:24;;;;;;;3.90;2.92;;;22.40;94.80;;;;;;5040669;28;20539;-81
2022/08/11 00:03:57;;;;;;;3.53;3.20;;;22.40;95.00;;;;;;5045182;28;20102;-81
2022/08/11 00:06:32;;;;;;;7.10;3.55;;;22.40;95.10;;;;;;5043115;28;20473;-82
2022/08/11 00:08:59;;;;;;;2.75;2.50;;;22.30;95.30;;;;;;5040503;28;20017;-82
2022/08/11 00:11:32;;;;;;;4.40;2.60;;;22.40;95.30;;;;;;5042424;28;20017;-79
2022/08/11 00:13:59;;;;;;;3.90;3.40;;;22.30;95.40;;;;;;5044248;28;20500;-82
2022/08/11 00:16:25;;;;;;;5.30;2.90;;;22.20;95.30;;;;;;5048486;28;20028;-81
2022/08/11 00:18:56;;;;;;;4.53;3.25;;;22.20;95.40;;;;;;5051096;28;20393;-82
2022/08/11 00:21:23;;;;;;;4.35;3.20;;;22.20;95.40;;;;;;5048354;28;20053;-81
2022/08/11 00:23:56;;;;;;;5.85;3.30;;;22.20;95.70;;;;;;5035247;28;20029;-81
2022/08/11 00:26:22;;;;;;;;;;;22.10;95.90;;;;;;5032263;28;20027;-81
2022/08/11 00:28:50;;;;;;;3.63;2.83;;;22.10;95.80;;;;;;5045506;28;19962;-80
2022/08/11 00:31:33;;;;;;;3.35;3.03;;;22.10;95.80;;;;;;5036055;28;20033;-81
2022/08/11 00:34:01;;;;;;;4.70;3.60;;;22.10;95.80;;;;;;5038840;28;20129;-81
2022/08/11 00:36:38;;;;;;;7.68;2.67;;;22.00;95.80;;;;;;5048523;28;20112;-81
2022/08/11 00:39:06;;;;;;;3.47;2.67;;;21.90;95.50;;;;;;5046244;28;20112;-81
2022/08/11 00:41:48;;;;;;;3.30;2.95;;;21.90;95.50;;;;;;5048407;28;20100;-81
2022/08/11 00:44:43;;;;;;;4.35;3.30;;;21.90;95.70;;;;;;5039053;28;20516;-81
2022/08/11 00:47:39;;;;;;;3.40;3.10;;;21.90;95.70;;;;;;5044899;28;20095;-79
2022/08/11 00:50:17;;;;;;;4.22;2.92;;;21.80;95.90;;;;;;5040171;28;20022;-81
2022/08/11 00:53:01;;;;;;;5.63;3.28;;;21.80;95.90;;;;;;5040647;28;20409;-81
2022/08/11 00:56:05;;;;;;;7.07;3.30;;;21.80;95.80;;;;;;5045725;28;20032;-81
2022/08/11 00:58:53;;;;;;;;;;;21.80;95.90;;;;;;5044525;28;20031;-76
2022/08/11 01:01:52;;;;;;;5.38;2.88;;;21.70;95.80;;;;;;4986637;28;19913;-77
2022/08/11 01:05:02;;;;;;;9.95;3.72;;;21.70;95.80;;;;;;5039028;28;20054;-77
2022/08/11 01:07:49;;;;;;;4.82;3.17;;;21.60;96.00;;;;;;4997989;28;20389;-80
2022/08/11 01:10:37;;;;;;;5.82;3.20;;;21.60;96.00;;;;;;5045172;28;20052;-76
2022/08/11 01:13:31;;;;;;;4.18;3.13;;;21.60;96.10;;;;;;5029852;28;20063;-75
2022/08/11 01:16:15;;;;;;;3.50;3.20;;;21.50;96.10;;;;;;5044094;28;20029;-76
2022/08/11 01:19:12;;;;;;;4.22;3.67;;;21.50;96.20;;;;;;5042439;28;20036;-76
2022/08/11 01:21:48;;;;;;;3.75;3.45;;;21.40;96.40;;;;;;5044998;28;20122;-78
2022/08/11 01:24:46;;;;;;;3.80;3.30;;;21.40;96.50;;;;;;5046542;28;20398;-75
2022/08/11 01:27:22;;;;;;;4.85;3.80;;;21.40;96.50;;;;;;5034476;28;20575;-77
2022/08/11 01:30:07;;;;;;;4.75;3.20;;;21.40;96.50;;;;;;5041740;28;20033;-75
2022/08/11 01:33:08;;;;;;;5.68;3.50;;;21.30;96.60;;;;;;5050707;28;20051;-75
2022/08/11 01:36:11;;;;;;;4.28;3.88;;;21.30;96.60;;;;;;5044435;28;20049;-75
2022/08/11 01:38:54;;;;;;;4.25;3.45;;;21.20;96.50;;;;;;5049735;28;20064;-76
2022/08/11 01:44:44;;;;;;;7.50;3.13;;;21.20;96.60;;;;;;5053133;28;20665;-76
2022/08/11 01:50:48;;;;;;;5.45;3.70;;;21.10;96.80;;;;;;5048744;28;20182;-77
2022/08/11 01:53:17;;;;;;;6.00;3.33;;;21.00;98.00;;;;;;5052607;28;20029;-77
2022/08/11 01:56:03;;;;;;;3.95;3.55;;;20.90;97.20;;;;;;5042925;28;20036;-74
2022/08/11 01:58:29;;;;;;;4.38;3.95;;;20.80;97.00;;;;;;5045837;28;20028;-78
2022/08/11 02:01:33;;;;;;;7.97;4.18;;;20.80;97.70;;;;;;5044398;28;20037;-76
2022/08/11 02:04:27;;;;;;;4.30;3.90;;;20.80;97.20;;;;;;5011676;28;20037;-75
2022/08/11 02:07:17;;;;;;;5.60;4.07;;;20.70;97.40;;;;;;5047981;28;20025;-80
2022/08/11 02:13:43;;;;;;;6.15;3.78;;;20.70;98.00;;;;;;5043358;28;20051;-77
2022/08/11 02:16:15;;;;;;;6.25;4.38;;;20.70;97.30;;;;;;5053304;28;20444;-79
2022/08/11 02:25:06;;;;;;;5.40;4.20;;;20.60;97.40;;;;;;5041876;28;20504;-79
2022/08/11 02:27:43;;;;;;;4.93;4.18;;;20.60;97.20;;;;;;5041179;28;20040;-82
2022/08/11 02:30:16;;;;;;;6.30;4.90;;;20.50;97.50;;;;;;5031683;28;20033;-77
2022/08/11 02:33:23;;;;;;;6.13;4.47;;;20.50;97.70;;;;;;5043122;28;20033;-79
2022/08/11 02:36:05;;;;;;;6.63;4.68;;;20.50;97.60;;;;;;5043057;28;20064;-80
2022/08/11 02:38:48;;;;;;;4.60;4.20;;;20.40;98.10;;;;;;5042491;28;20075;-78
2022/08/11 02:44:59;;;;;;;5.55;4.82;;;20.30;97.50;;;;;;5043326;28;20037;-80
2022/08/11 02:47:28;;;;;;;;;;;20.20;97.90;;;;;;5046877;28;20033;-77
2022/08/11 02:50:07;;;;;;;6.13;4.13;;;20.20;97.90;;;;;;5039338;28;19966;-81
2022/08/11 02:52:50;;;;;;;4.75;4.35;;;20.20;97.70;;;;;;5047161;28;20025;-81
2022/08/11 02:55:26;;;;;;;5.45;4.70;;;20.20;97.70;;;;;;5043290;28;20442;-80
2022/08/11 02:57:57;;;;;;;6.43;4.28;;;20.20;98.00;;;;;;5047818;28;20033;-81
2022/08/11 03:00:25;;;;;;;4.88;4.05;;;20.20;98.40;;;;;;5044606;28;20021;-78
2022/08/11 03:03:32;;;;;;;5.90;3.72;;;20.10;98.10;;;;;;5044360;28;20032;-80
2022/08/11 03:06:07;;;;;;;5.25;4.75;;;20.00;98.20;;;;;;4970046;28;20027;-82
2022/08/11 03:08:53;;;;;;;5.55;4.00;;;20.00;98.30;;;;;;5036295;28;20445;-81
2022/08/11 03:17:13;;;;;;;5.13;4.38;;;19.90;99.00;;;;;;5042399;28;20090;-77
2022/08/11 03:19:58;;;;;;;8.45;4.70;;;19.90;98.30;;;;;;5030303;28;20029;-79
2022/08/11 03:22:33;;;;;;;6.38;4.40;;;19.90;98.70;;;;;;5044414;28;20017;-79
2022/08/11 03:25:30;;;;;;;5.80;4.75;;;19.90;98.40;;;;;;5039096;28;20029;-78
2022/08/11 03:28:23;;;;;;;8.27;5.30;;;19.90;98.20;;;;;;4988597;28;20039;-77
2022/08/11 03:31:01;;;;;;;6.35;5.38;;;19.90;98.40;;;;;;5044493;28;20045;-80
2022/08/11 03:37:01;;;;;;;6.50;4.82;;;19.80;98.40;;;;;;5041797;28;20063;-75
2022/08/11 03:39:27;;;;;;;6.95;5.30;;;19.80;98.80;;;;;;5025829;28;20114;-80
2022/08/11 03:42:12;;;;;;;7.50;5.35;;;19.80;98.50;;;;;;5023369;28;20065;-76
2022/08/11 03:45:00;;;;;;;6.47;5.53;;;19.70;98.80;;;;;;5037234;28;20359;-80
2022/08/11 03:47:49;;;;;;;8.38;5.40;;;19.70;98.70;;;;;;5043002;28;20025;-79
2022/08/11 03:50:40;;;;;;;6.20;5.60;;;19.70;99.10;;;;;;5040763;28;20029;-79
2022/08/11 03:53:28;;;;;;;9.32;6.13;;;19.70;99.10;;;;;;5049023;28;20155;-77
2022/08/11 03:56:20;;;;;;;9.13;5.53;;;19.70;98.80;;;;;;5043062;28;20047;-77
2022/08/11 03:59:16;;;;;;;8.27;5.72;;;19.60;98.80;;;;;;5047910;28;20120;-80
2022/08/11 04:01:47;;;;;;;8.02;5.88;;;19.60;98.80;;;;;;5045762;28;20040;-75
2022/08/11 04:04:31;;;;;;;5.85;5.35;;;19.60;99.10;;;;;;5043051;28;20489;-79
2022/08/11 04:07:17;;;;;;;5.93;5.20;;;19.60;99.10;;;;;;5038835;28;20473;-75
2022/08/11 04:10:39;;;;;;;6.35;5.35;;;19.50;99.10;;;;;;5043969;28;20029;-77
2022/08/11 04:13:32;;;;;;;9.02;6.10;;;19.50;99.20;;;;;;4947802;29;20039;-75
2022/08/11 04:16:06;;;;;;;6.97;4.78;;;19.40;99.30;;;;;;4952517;29;20039;-77
2022/08/11 04:18:50;;;;;;;7.95;5.93;;;19.50;99.40;;;;;;5028199;28;20481;-79
2022/08/11 04:21:43;;;;;;;7.07;5.60;;;19.40;99.70;;;;;;5039352;28;20033;-76
2022/08/11 04:24:23;;;;;;;;;;;19.40;99.50;;;;;;5042889;28;20025;-78
2022/08/11 04:26:54;;;;;;;7.40;6.15;;;19.40;99.50;;;;;;5046149;28;20007;-79
2022/08/11 04:29:47;;;;;;;7.22;6.15;;;19.40;99.50;;;;;;5051431;28;20025;-78
2022/08/11 04:32:34;;;;;;;11.38;6.25;;;19.40;99.50;;;;;;5042559;28;20124;-77
2022/08/11 04:35:25;;;;;;;9.07;5.60;;;19.30;99.70;;;;;;5043560;28;20066;-77
2022/08/11 04:37:54;;;;;;;7.93;5.30;;;19.20;99.70;;;;;;5031004;28;20025;-76
2022/08/11 04:40:38;;;;;;;5.93;5.43;;;19.20;99.90;;;;;;5039619;28;20029;-79
2022/08/11 04:43:31;;;;;;;7.45;5.50;;;19.10;99.90;;;;;;5037132;28;20087;-78
2022/08/11 04:46:09;;;;;;;7.20;5.30;;;19.10;99.90;;;;;;5021080;28;20534;-78
2022/08/11 05:07:42;;;;;;;9.70;6.25;;;19.00;99.90;;;;;;5013347;28;20033;-77
2022/08/11 05:10:32;;;;;;;10.52;6.30;;;19.00;99.90;;;;;;5039945;28;20033;-75
2022/08/11 05:35:54;;;;;;;6.97;5.53;;;18.80;99.90;;;;;;5041083;28;20044;-80
2022/08/11 05:57:58;;;;;;;8.50;5.68;;;19.00;99.90;;;;;;5044661;28;20068;-79
2022/08/11 06:00:24;;;;;;;7.03;5.97;;;19.00;99.90;;;;;;5048698;28;20484;-80
2022/08/11 06:02:59;;;;;;;7.72;6.15;;;18.90;99.90;;;;;;5038086;28;20033;-78
2022/08/11 06:05:36;;;;;;;7.13;6.22;;;19.00;99.90;;;;;;5045601;28;20793;-76
2022/08/11 06:08:04;;;;;;;12.25;6.20;;;19.00;99.90;;;;;;5059287;28;20021;-78
2022/08/11 06:10:40;;;;;;;11.40;6.15;;;19.00;99.90;;;;;;5040209;28;20465;-78
2022/08/11 06:13:08;;;;;;;7.53;5.47;;;19.10;99.90;;;;;;5028530;28;20021;-78
2022/08/11 06:15:44;;;;;;;9.18;6.22;;;19.10;99.90;;;;;;5044425;28;20030;-79
2022/08/11 06:18:11;;;;;;;8.40;6.15;;;19.10;99.90;;;;;;5041621;28;20029;-77
2022/08/11 06:20:55;;;;;;;9.10;5.32;;;19.10;99.90;;;;;;5042802;28;20108;-80
2022/08/11 06:23:22;;;;;;;8.88;5.25;;;19.20;99.90;;;;;;5044623;28;20029;-78
2022/08/11 06:25:53;;;;;;;8.30;5.80;;;19.20;99.90;;;;;;5039154;28;20367;-80
2022/08/11 06:28:29;;;;;;;10.18;5.78;;;19.30;99.90;;;;;;5043342;28;20521;-79
2022/08/11 06:30:56;;;;;;;7.47;5.50;;;19.30;99.90;;;;;;5043681;28;20033;-79
2022/08/11 06:34:00;;;;;;;7.70;4.78;;;19.30;99.90;;;;;;5023770;28;20025;-79
2022/08/11 06:36:26;;;;;;;8.85;5.38;;;19.40;99.90;;;;;;5034041;28;20041;-81
2022/08/11 06:39:17;;;;;;;5.75;5.15;;;19.50;99.90;;;;;;5043178;28;20032;-81
2022/08/11 06:41:56;;;;;;;9.52;5.72;;;19.50;99.90;;;;;;5039221;28;20497;-78
2022/08/11 06:44:31;;;;;;;6.85;5.15;;;19.60;99.90;;;;;;5041715;28;20045;-87
2022/08/11 06:47:07;;;;;;;10.00;5.70;;;19.60;99.90;;;;;;5026172;28;20022;-83
2022/08/11 06:52:35;;;;;;;7.18;4.95;;;19.70;99.90;;;;;;5049044;28;20083;-85
2022/08/11 07:01:15;;;;;;;6.40;4.28;;;19.90;99.90;;;;;;5048982;28;20041;-80
2022/08/11 07:03:56;;;;;;;5.93;5.13;;;20.00;99.90;;;;;;5050028;28;20040;-79
2022/08/11 07:06:42;;;;;;;8.25;5.38;;;20.10;99.90;;;;;;5047719;28;20024;-80
2022/08/11 07:15:43;;;;;;;7.78;5.53;;;20.40;99.90;;;;;;5056355;28;20539;-85
2022/08/11 07:29:54;;;;;;;7.00;4.65;;;20.90;99.90;;;;;;5047094;28;20099;-82
2022/08/11 07:32:36;;;;;;;10.35;5.50;;;21.00;99.90;;;;;;5055355;28;20170;-84
2022/08/11 07:35:12;;;;;;;13.20;5.30;;;21.20;99.90;;;;;;5042966;28;20036;-83
2022/08/11 07:37:42;;;;;;;10.52;5.13;;;21.30;99.90;;;;;;5036742;28;20021;-83
2022/08/11 07:40:09;;;;;;;10.07;5.43;;;21.40;99.90;;;;;;5041110;28;20083;-83
2022/08/11 07:42:37;;;;;;;9.60;4.30;;;21.60;99.90;;;;;;5052014;28;20017;-85
2022/08/11 07:53:32;;;;;;;7.05;4.55;;;22.20;99.90;;;;;;5042955;28;20064;-76
2022/08/11 07:56:00;;;;;;;8.75;4.38;;;22.30;99.90;;;;;;5038280;28;20025;-75
2022/08/11 08:17:56;;;;;;;10.35;5.07;;;23.50;99.90;;;;;;5044364;28;20087;-75
2022/08/11 08:20:44;;;;;;;7.90;4.18;;;23.60;99.90;;;;;;5050241;28;20025;-76
2022/08/11 08:23:10;;;;;;;7.03;3.50;;;23.80;99.90;;;;;;5051827;28;20159;-75
2022/08/11 08:25:39;;;;;;;5.65;4.25;;;24.00;99.90;;;;;;5046292;28;20025;-81
2022/08/11 08:28:32;;;;;;;6.25;4.15;;;24.10;99.90;;;;;;5049774;28;20029;-76
2022/08/11 08:30:58;;;;;;;9.65;3.40;;;24.20;99.90;;;;;;5038721;28;20041;-77
2022/08/11 08:33:26;;;;;;;4.88;3.83;;;24.40;99.90;;;;;;5039428;28;20033;-75
2022/08/11 08:36:11;;;;;;;8.68;3.83;;;24.50;98.00;;;;;;5042678;28;20039;-77
2022/08/11 08:38:52;;;;;;;9.60;4.20;;;24.70;98.30;;;;;;5046025;28;20029;-75
2022/08/11 08:41:26;;;;;;;9.70;3.65;;;24.80;98.60;;;;;;5039610;28;20025;-77
2022/08/11 08:44:01;;;;;;;5.03;3.10;;;25.00;98.20;;;;;;5049566;28;20104;-77
2022/08/11 08:46:35;;;;;;;7.43;4.30;;;25.30;98.10;;;;;;5046518;28;20147;-76
2022/08/11 08:49:02;;;;;;;9.25;3.92;;;25.40;98.00;;;;;;5042110;28;20028;-77
2022/08/11 08:51:33;;;;;;;10.93;4.00;;;25.50;97.40;;;;;;5038090;28;20466;-77
2022/08/11 08:54:12;;;;;;;10.13;4.25;;;25.80;97.30;;;;;;5049291;28;20401;-77
2022/08/11 08:56:40;;;;;;;8.45;3.63;;;25.80;96.70;;;;;;5046821;28;20052;-77
2022/08/11 08:59:06;;;;;;;5.00;3.42;;;25.90;96.20;;;;;;5053238;28;20401;-75
2022/08/11 09:01:59;;;;;;;7.38;3.60;;;26.10;98.40;;;;;;5051497;28;20028;-76
2022/08/11 09:04:27;;;;;;;13.82;4.15;;;26.20;94.10;;;;;;5049194;28;20037;-77
2022/08/11 09:07:14;;;;;;;8.77;3.80;;;26.40;94.60;;;;;;5047412;28;20051;-75
2022/08/11 09:09:56;;;;;;;10.27;4.10;;;26.50;94.50;;;;;;5054900;28;20059;-76
2022/08/11 09:12:26;;;;;;;13.82;3.70;;;26.70;95.20;;;;;;5044412;28;20128;-77
2022/08/11 09:15:05;;;;;;;6.63;3.42;;;26.80;94.30;;;;;;5036028;28;20087;-75
2022/08/11 09:17:47;;;;;;;7.45;3.63;;;27.00;94.20;;;;;;5045755;28;20217;-76
2022/08/11 09:20:16;;;;;;;7.78;3.50;;;27.20;94.30;;;;;;5041806;28;20045;-75
2022/08/11 09:28:16;;;;;;;12.32;3.70;;;27.50;91.80;;;;;;5042878;28;20492;-77
2022/08/11 09:30:52;;;;;;;9.40;4.00;;;27.70;92.70;;;;;;5042786;28;20033;-78
2022/08/11 09:33:19;;;;;;;6.35;3.80;;;27.80;93.10;;;;;;5045491;28;20390;-77
2022/08/11 09:35:47;;;;;;;9.93;3.55;;;27.90;92.60;;;;;;5047858;28;20469;-77
2022/08/11 09:41:04;;;;;;;10.27;3.85;;;28.10;91.30;;;;;;5048459;28;20397;-79
2022/08/11 09:46:21;;;;;;;7.20;3.72;;;28.40;92.00;;;;;;5049170;28;20088;-78
2022/08/11 09:48:48;;;;;;;6.47;3.55;;;28.50;90.80;;;;;;5046027;28;20033;-78
2022/08/11 09:51:15;;;;;;;8.30;3.50;;;28.70;91.10;;;;;;5051268;28;20363;-78
2022/08/11 09:53:43;;;;;;;6.18;3.60;;;28.80;90.60;;;;;;5050770;28;20033;-77
2022/08/11 09:59:03;;;;;;;7.28;3.60;;;28.90;90.30;;;;;;5040236;28;20048;-78
2022/08/11 10:01:53;;;;;;;6.45;3.72;;;29.20;87.40;;;;;;5046012;28;20484;-77
2022/08/11 10:04:31;;;;;;;8.80;3.97;;;29.20;89.30;;;;;;5042435;28;20030;-75
2022/08/11 10:07:01;;;;;;;4.95;3.72;;;29.40;90.20;;;;;;5048591;28;20025;-75
2022/08/11 10:09:38;;;;;;;9.00;3.85;;;29.50;90.50;;;;;;5041774;28;20529;-74
2022/08/11 10:12:16;;;;;;;6.40;3.33;;;29.50;87.70;;;;;;5049324;28;20029;-75
2022/08/11 10:17:35;;;;;;;7.97;3.55;;;30.00;87.90;;;;;;5053415;28;20534;-75
2022/08/11 10:20:06;;;;;;;8.23;3.58;;;30.00;86.80;;;;;;5051155;28;20052;-74
2022/08/11 10:28:08;;;;;;;6.40;3.40;;;30.20;89.50;;;;;;5050455;28;20118;-74
2022/08/11 10:36:06;;;;;;;7.63;3.38;;;30.70;83.80;;;;;;5042932;28;20051;-74
2022/08/11 10:38:32;;;;;;;5.05;3.42;;;30.70;87.30;;;;;;5044290;28;20025;-73
2022/08/11 10:43:44;;;;;;;6.13;3.30;;;30.70;87.60;;;;;;5045598;28;20067;-74
2022/08/11 10:48:57;;;;;;;5.32;4.55;;;31.00;84.20;;;;;;5048022;28;20079;-73
2022/08/11 10:59:41;;;;;;;5.97;3.28;;;30.80;72.00;;;;;;5052521;28;20581;-73
2022/08/11 11:02:13;;;;;;;6.80;3.10;;;31.00;76.10;;;;;;5042161;28;20029;-74
2022/08/11 11:04:46;;;;;;;3.63;3.33;;;31.00;76.90;;;;;;5051836;28;20073;-73
2022/08/11 11:07:23;;;;;;;4.43;3.00;;;31.00;72.30;;;;;;5055195;28;20289;-73
2022/08/11 11:10:00;;;;;;;4.78;2.92;;;31.10;77.00;;;;;;5030683;28;20554;-73
2022/08/11 11:18:08;;;;;;;6.05;3.17;;;31.40;73.90;;;;;;5050077;28;20028;-74
2022/08/11 11:20:59;;;;;;;4.50;3.00;;;31.20;78.00;;;;;;5041830;28;20431;-73
2022/08/11 11:23:31;;;;;;;5.57;3.22;;;31.40;74.30;;;;;;5043881;28;20033;-74
2022/08/11 11:26:21;;;;;;;8.15;3.50;;;31.40;77.30;;;;;;5050163;28;20021;-75
2022/08/11 11:29:05;;;;;;;5.70;3.20;;;31.50;76.40;;;;;;5033181;28;20091;-75
2022/08/11 11:32:08;;;;;;;5.18;2.45;;;31.40;74.90;;;;;;5028913;28;20117;-75
2022/08/11 11:35:01;;;;;;;5.97;3.03;;;31.40;78.80;;;;;;5046808;28;20444;-74
2022/08/11 11:37:32;;;;;;;4.53;2.92;;;31.50;73.70;;;;;;5025862;28;20040;-75
2022/08/11 11:39:58;;;;;;;5.85;3.40;;;31.60;70.20;;;;;;5046141;28;20029;-75
2022/08/11 11:42:24;;;;;;;7.55;3.00;;;31.60;74.70;;;;;;5040057;28;20112;-74
2022/08/11 11:44:51;;;;;;;5.05;2.85;;;31.80;70.60;;;;;;5032925;28;20017;-76
2022/08/11 11:47:18;;;;;;;4.18;3.30;;;31.90;74.40;;;;;;5042063;28;20045;-77
2022/08/11 11:49:45;;;;;;;3.97;2.67;;;32.10;69.40;;;;;;5043701;28;20063;-77
2022/08/11 11:52:18;;;;;;;6.95;3.00;;;32.20;66.00;;;;;;5041028;28;20048;-76
2022/08/11 11:54:49;;;;;;;2.90;2.70;;;31.90;73.60;;;;;;5045406;28;20041;-76
2022/08/11 12:02:57;;;;;;;3.15;2.85;;;32.10;70.60;;;;;;5044328;28;20584;-77
2022/08/11 12:05:24;;;;;;;5.43;2.80;;;31.90;68.20;;;;;;5042362;28;20056;-77
2022/08/11 12:08:12;;;;;;;3.42;2.80;;;32.00;72.60;;;;;;5043994;28;20021;-77
2022/08/11 12:10:46;;;;;;;5.53;2.85;;;31.90;72.20;;;;;;5043818;28;20031;-77
2022/08/11 12:16:02;;;;;;;7.30;2.80;;;32.30;68.20;;;;;;5046566;28;20040;-75
2022/08/11 12:18:31;;;;;;;7.13;3.30;;;32.30;69.60;;;;;;5040239;28;20028;-75
2022/08/11 12:21:02;;;;;;;9.10;2.70;;;32.40;70.00;;;;;;5027144;28;20433;-75
2022/08/11 12:29:04;;;;;;;8.57;3.15;;;32.50;65.40;;;;;;5041251;28;20052;-75
2022/08/11 12:31:31;;;;;;;9.88;3.38;;;32.50;70.30;;;;;;5027054;28;20036;-75
2022/08/11 12:34:16;;;;;;;7.63;3.65;;;32.40;71.60;;;;;;5051418;28;20056;-75
2022/08/11 12:36:58;;;;;;;6.10;3.00;;;32.30;76.40;;;;;;5048663;28;20480;-75
2022/08/11 12:53:32;;;;;;;3.83;3.28;;;32.10;69.70;;;;;;5014674;28;20064;-76
2022/08/11 12:58:51;;;;;;;5.85;3.53;;;32.30;71.10;;;;;;5046802;28;20035;-74
2022/08/11 13:06:51;;;;;;;6.50;3.83;;;32.20;74.00;;;;;;5046105;28;20090;-74
2022/08/11 13:09:18;;;;;;;5.32;3.17;;;32.10;72.00;;;;;;5045127;28;20029;-75
2022/08/11 13:14:31;;;;;;;4.55;3.05;;;32.30;75.80;;;;;;5050365;28;20052;-74
2022/08/11 13:19:45;;;;;;;4.85;3.50;;;32.20;71.60;;;;;;5043788;28;20044;-74
2022/08/11 13:22:11;;;;;;;6.95;3.53;;;32.20;71.10;;;;;;5047689;28;20022;-74
2022/08/11 13:24:39;;;;;;;5.47;3.03;;;32.30;70.70;;;;;;5048136;28;20543;-75
2022/08/11 13:27:06;;;;;;;6.75;2.97;;;32.10;72.40;;;;;;5045077;28;20473;-74
2022/08/11 13:29:34;;;;;;;5.45;3.08;;;32.20;71.40;;;;;;5049258;28;20107;-75
2022/08/11 13:32:00;;;;;;;6.78;3.50;;;32.10;72.40;;;;;;5048285;28;20139;-75
2022/08/11 13:34:29;;;;;;;6.43;3.03;;;32.20;75.10;;;;;;5034857;28;20383;-79
2022/08/11 13:36:59;;;;;;;4.60;2.53;;;32.30;70.70;;;;;;5025418;28;20029;-74
2022/08/11 13:39:28;;;;;;;6.68;3.05;;;32.20;70.20;;;;;;5043495;28;20112;-74
2022/08/11 13:41:55;;;;;;;3.63;2.70;;;32.30;68.50;;;;;;5049262;28;20033;-76
2022/08/11 13:44:23;;;;;;;6.38;2.95;;;32.30;66.20;;;;;;5051098;28;20482;-77
2022/08/11 13:46:50;;;;;;;7.80;2.67;;;32.10;68.90;;;;;;5040830;28;20362;-75
2022/08/11 13:49:16;;;;;;;5.10;2.70;;;32.10;65.60;;;;;;5046064;28;20093;-82
2022/08/11 13:51:43;;;;;;;6.22;2.70;;;32.20;70.40;;;;;;5052936;28;20104;-78
2022/08/11 13:54:20;;;;;;;3.72;3.08;;;32.20;66.60;;;;;;5041573;28;20033;-74
2022/08/11 13:56:51;;;;;;;4.68;3.10;;;32.40;70.60;;;;;;5041134;28;20024;-74
2022/08/11 13:59:21;;;;;;;5.60;2.75;;;32.40;69.90;;;;;;5054303;28;20033;-74
2022/08/11 14:01:53;;;;;;;3.70;2.72;;;32.40;66.20;;;;;;5058539;28;20540;-76
2022/08/11 14:04:29;;;;;;;7.50;2.60;;;32.30;73.00;;;;;;5051694;28;20038;-79
2022/08/11 14:06:59;;;;;;;5.88;3.30;;;32.20;64.40;;;;;;5046250;28;20146;-80
2022/08/11 14:09:33;;;;;;;4.60;2.53;;;32.10;67.60;;;;;;5042479;28;20382;-79
2022/08/11 14:14:56;;;;;;;3.45;2.88;;;32.00;68.90;;;;;;5047968;28;20124;-75
2022/08/11 14:17:22;;;;;;;5.78;3.25;;;32.00;70.80;;;;;;5045111;28;20034;-74
2022/08/11 14:19:52;;;;;;;4.65;2.70;;;32.20;66.90;;;;;;5044491;28;20039;-74
2022/08/11 14:22:21;;;;;;;3.28;3.03;;;32.10;66.40;;;;;;5046618;28;20374;-75
2022/08/11 14:24:48;;;;;;;6.30;3.30;;;32.00;66.80;;;;;;5042195;28;20540;-74
2022/08/11 14:27:15;;;;;;;3.78;3.10;;;32.00;69.00;;;;;;5042987;28;20052;-75
2022/08/11 14:29:43;;;;;;;4.63;2.60;;;31.90;66.80;;;;;;5047938;28;20037;-74
2022/08/11 14:32:13;;;;;;;5.07;3.10;;;31.90;70.30;;;;;;5040522;28;20033;-74
2022/08/11 14:34:41;;;;;;;8.23;3.20;;;31.90;66.10;;;;;;5040251;28;20029;-74
2022/08/11 14:37:12;;;;;;;3.33;2.70;;;31.90;70.40;;;;;;5038036;28;20524;-75
2022/08/11 14:39:49;;;;;;;7.30;3.15;;;31.90;66.80;;;;;;5044573;28;20576;-75
2022/08/11 14:47:56;;;;;;;4.25;2.80;;;31.90;66.90;;;;;;5035768;28;20172;-74
2022/08/11 14:50:25;;;;;;;5.55;3.03;;;31.80;66.80;;;;;;5046089;28;20064;-75
2022/08/11 14:53:02;;;;;;;4.05;3.10;;;31.70;68.50;;;;;;5046616;28;20482;-75
2022/08/11 14:58:20;;;;;;;3.03;2.83;;;31.60;66.90;;;;;;5045503;28;20047;-76
2022/08/11 15:00:49;;;;;;;9.55;3.35;;;31.70;67.60;;;;;;5043815;28;20041;-76
2022/08/11 15:03:15;;;;;;;3.05;2.75;;;31.60;68.90;;;;;;5053279;28;20029;-77
2022/08/11 15:05:46;;;;;;;3.58;2.53;;;31.60;69.70;;;;;;5047198;28;20401;-75
2022/08/11 15:08:14;;;;;;;3.90;2.88;;;31.60;67.30;;;;;;5052103;28;20028;-76
2022/08/11 15:10:40;;;;;;;4.53;3.08;;;31.60;67.70;;;;;;5042154;28;20033;-76
2022/08/11 15:13:06;;;;;;;5.18;3.50;;;31.60;68.80;;;;;;5043859;28;20021;-76
2022/08/11 15:18:22;;;;;;;4.18;2.88;;;31.50;68.50;;;;;;5049132;28;20114;-75
2022/08/11 15:37:25;;;;;;;5.75;3.63;;;31.50;67.40;;;;;;5042454;28;20110;-75
2022/08/11 15:37:45;;;;;;;3.78;3.28;;;31.10;70.80;;;;;;5039546;28;20524;-74
2022/08/11 15:46:01;;;;;;;4.40;2.90;;;31.00;68.70;;;;;;5047136;28;20040;-75
2022/08/11 15:48:32;;;;;;;3.92;2.92;;;31.00;70.70;;;;;;5045069;28;20024;-76
2022/08/11 15:51:08;;;;;;;3.60;3.10;;;31.00;70.60;;;;;;5038627;28;20029;-75
2022/08/11 15:53:45;;;;;;;5.53;4.05;;;30.90;72.30;;;;;;5042642;28;20048;-75
2022/08/11 15:56:13;;;;;;;5.22;3.47;;;30.80;69.70;;;;;;5051226;28;20028;-75
2022/08/11 16:04:25;;;;;;;4.95;3.42;;;30.80;68.70;;;;;;5042140;28;20044;-75
2022/08/11 16:07:03;;;;;;;7.80;3.72;;;30.70;70.10;;;;;;5039642;28;20029;-75
2022/08/11 16:09:50;;;;;;;5.63;3.53;;;30.70;70.10;;;;;;5048462;28;20028;-73
2022/08/11 16:12:20;;;;;;;5.63;3.58;;;30.60;72.20;;;;;;5047043;28;20473;-76
2022/08/11 16:17:43;;;;;;;7.88;3.67;;;30.50;70.50;;;;;;5040493;28;20445;-78
2022/08/11 16:20:13;;;;;;;4.60;3.90;;;30.50;70.40;;;;;;5047870;28;20103;-76
2022/08/11 16:22:45;;;;;;;3.83;3.40;;;30.50;70.60;;;;;;5043209;28;20049;-75
2022/08/11 16:25:17;;;;;;;4.05;2.95;;;30.40;73.00;;;;;;5054332;28;20029;-77
2022/08/11 16:27:51;;;;;;;4.35;3.38;;;30.40;70.50;;;;;;5043007;28;20079;-73
2022/08/11 16:30:17;;;;;;;5.80;3.72;;;30.40;71.80;;;;;;5043080;28;20487;-75
2022/08/11 16:32:48;;;;;;;5.57;3.33;;;30.30;72.60;;;;;;5039934;28;20033;-74
2022/08/11 16:40:53;;;;;;;7.82;3.60;;;30.20;73.60;;;;;;5039291;28;20040;-75
2022/08/11 16:48:54;;;;;;;6.13;3.35;;;30.10;73.50;;;;;;5038596;28;20055;-75
2022/08/11 16:51:21;;;;;;;3.92;3.53;;;30.10;73.70;;;;;;5023477;28;20123;-76
2022/08/11 16:53:48;;;;;;;2.65;2.45;;;30.10;72.20;;;;;;5047555;28;20029;-75
2022/08/11 16:56:19;;;;;;;4.13;3.60;;;30.10;73.20;;;;;;5043995;28;20483;-76
2022/08/11 17:01:37;;;;;;;3.53;2.85;;;30.00;73.70;;;;;;5044370;28;20047;-75
2022/08/11 17:18:38;;;;;;;3.78;2.70;;;29.70;72.80;;;;;;5044708;28;20076;-76
2022/08/11 17:21:02;;;;;;;5.13;2.88;;;29.60;73.70;;;;;;5037203;28;20478;-75
2022/08/11 17:23:49;;;;;;;5.82;2.85;;;29.60;74.20;;;;;;5041907;28;20018;-75
2022/08/11 17:26:55;;;;;;;3.95;3.00;;;29.50;74.60;;;;;;5047647;28;20021;-76
2022/08/11 17:29:23;;;;;;;2.90;2.70;;;29.50;72.80;;;;;;5043150;28;20115;-76
2022/08/11 17:37:23;;;;;;;5.35;2.83;;;29.30;72.90;;;;;;5040549;28;20394;-75
2022/08/11 17:39:51;;;;;;;4.55;2.15;;;29.20;73.00;;;;;;5046673;28;20052;-75
2022/08/11 17:50:52;;;;;;;3.28;2.95;;;29.10;75.30;;;;;;5046701;28;20040;-75
2022/08/11 17:59:50;;;;;;;3.33;3.00;;;29.00;76.30;;;;;;5054159;28;20062;-75
2022/08/11 18:01:46;;;;;;;3.92;2.67;;;28.90;76.20;;;;;;5047514;28;20411;-75
2022/08/11 18:04:13;;;;;;;4.63;2.67;;;28.90;76.30;;;;;;5055728;28;20040;-77
2022/08/11 18:06:40;;;;;;;4.38;2.72;;;28.80;77.20;;;;;;5025177;28;20029;-77
